Time;durP1;ratioP1;P1;durP2;ratioP2;P2;SDS_P1;SDS_P2;PMS_P1;PMS_P2;Temp;Humidity;BMP_temperature;BMP_pressure;BME280_temperature;BME280_humidity;BME280_pressure;Samples;Min_cycle;Max_cycle;Signal;HPM_P1;HPM_P2
2023/05/08 00:01:33;;;;;;;19.38;17.58;;;12.70;99.90;;;;;;7359660;19;20043;-79
2023/05/08 00:03:59;;;;;;;19.60;17.67;;;12.70;99.90;;;;;;7358361;19;20499;-80
2023/05/08 00:06:28;;;;;;;19.48;17.67;;;12.70;99.90;;;;;;7353717;19;20025;-80
2023/05/08 00:08:55;;;;;;;19.70;17.90;;;12.60;99.90;;;;;;7361106;19;20029;-80
2023/05/08 00:11:24;;;;;;;19.38;17.48;;;12.60;99.90;;;;;;7354000;19;20006;-80
2023/05/08 00:13:50;;;;;;;21.60;19.50;;;12.60;99.90;;;;;;7360018;19;20034;-80
2023/05/08 00:16:17;;;;;;;20.98;19.15;;;12.60;99.90;;;;;;7361650;19;20018;-80
2023/05/08 00:18:43;;;;;;;19.70;17.85;;;12.60;99.90;;;;;;7354077;19;20423;-79
2023/05/08 00:21:09;;;;;;;19.08;17.17;;;12.60;99.90;;;;;;7364097;19;20516;-80
2023/05/08 00:23:35;;;;;;;21.20;19.30;;;12.60;99.90;;;;;;7359087;19;20632;-80
2023/05/08 00:26:01;;;;;;;20.63;18.63;;;12.60;99.90;;;;;;7361207;19;20014;-80
2023/05/08 00:28:28;;;;;;;21.45;19.45;;;12.60;99.90;;;;;;7363189;19;20085;-80
2023/05/08 00:30:54;;;;;;;20.42;18.42;;;12.60;99.90;;;;;;7362085;19;20014;-80
2023/05/08 00:33:20;;;;;;;19.95;17.98;;;12.60;99.90;;;;;;7360713;19;20033;-80
2023/05/08 00:35:47;;;;;;;20.55;18.75;;;12.60;99.90;;;;;;7358636;19;20015;-80
2023/05/08 00:38:13;;;;;;;19.50;17.70;;;12.60;99.90;;;;;;7358637;19;20908;-79
2023/05/08 00:40:39;;;;;;;19.77;17.95;;;12.60;99.90;;;;;;7364025;19;20090;-80
2023/05/08 00:43:06;;;;;;;19.42;17.58;;;12.60;99.90;;;;;;7362442;19;20052;-80
2023/05/08 00:45:35;;;;;;;21.42;19.25;;;12.60;99.90;;;;;;7363547;19;20025;-80
2023/05/08 00:48:02;;;;;;;20.25;18.38;;;12.60;99.90;;;;;;7359277;19;20366;-80
2023/05/08 00:50:30;;;;;;;19.60;17.70;;;12.60;99.90;;;;;;7364594;19;20015;-80
2023/05/08 00:52:59;;;;;;;20.80;18.67;;;12.70;99.90;;;;;;7357939;19;20022;-80
2023/05/08 00:55:25;;;;;;;19.60;17.85;;;12.70;99.90;;;;;;7359315;19;20022;-80
2023/05/08 00:57:52;;;;;;;19.80;17.80;;;12.60;99.90;;;;;;7355268;19;20030;-80
2023/05/08 01:00:20;;;;;;;18.92;17.02;;;12.60;99.90;;;;;;7359724;19;20034;-79
2023/05/08 01:02:47;;;;;;;18.90;17.20;;;12.50;99.90;;;;;;7357904;19;20038;-80
2023/05/08 01:05:13;;;;;;;19.67;17.88;;;12.50;99.90;;;;;;7360371;19;20471;-80
2023/05/08 01:07:40;;;;;;;18.88;17.17;;;12.50;99.90;;;;;;7354313;19;20019;-80
2023/05/08 01:10:06;;;;;;;19.10;17.38;;;12.40;99.90;;;;;;7363015;19;20038;-80
2023/05/08 01:13:03;;;;;;;19.38;17.63;;;12.40;99.90;;;;;;7358987;19;20093;-79
2023/05/08 01:15:40;;;;;;;20.98;18.92;;;12.30;99.90;;;;;;7364379;19;20534;-80
2023/05/08 01:18:15;;;;;;;20.88;18.77;;;12.30;99.90;;;;;;7360544;19;20046;-80
2023/05/08 01:20:52;;;;;;;19.92;18.02;;;12.30;99.90;;;;;;7361987;19;20022;-80
2023/05/08 01:23:31;;;;;;;21.23;19.25;;;12.30;99.90;;;;;;7364943;19;20022;-80
2023/05/08 01:26:26;;;;;;;19.67;17.92;;;12.30;99.90;;;;;;7359404;19;20018;-80
2023/05/08 01:29:24;;;;;;;20.05;18.25;;;12.20;99.90;;;;;;7363999;19;20023;-80
2023/05/08 01:32:15;;;;;;;20.13;18.25;;;12.20;99.90;;;;;;7364047;19;20022;-80
2023/05/08 01:35:11;;;;;;;20.73;18.65;;;12.10;99.90;;;;;;7358874;19;20497;-80
2023/05/08 01:37:44;;;;;;;21.88;19.88;;;12.10;99.90;;;;;;7361515;19;20019;-80
2023/05/08 01:40:14;;;;;;;21.40;19.45;;;12.10;99.90;;;;;;7364379;19;20445;-80
2023/05/08 01:42:49;;;;;;;21.00;18.90;;;12.00;99.90;;;;;;7362876;19;20023;-80
2023/05/08 01:45:24;;;;;;;21.65;18.92;;;12.00;99.90;;;;;;7365470;19;20414;-80
2023/05/08 01:48:05;;;;;;;19.27;17.38;;;12.00;99.90;;;;;;7364122;19;20014;-80
2023/05/08 01:50:48;;;;;;;19.60;17.75;;;11.90;99.90;;;;;;7364486;19;20474;-80
2023/05/08 01:53:26;;;;;;;20.35;18.45;;;11.90;99.90;;;;;;7373101;19;20383;-80
2023/05/08 01:55:58;;;;;;;20.88;18.98;;;11.90;99.90;;;;;;7371262;19;20027;-80
2023/05/08 01:58:27;;;;;;;21.45;19.35;;;11.80;99.90;;;;;;7372858;19;20467;-80
2023/05/08 02:00:55;;;;;;;21.70;19.60;;;11.80;99.90;;;;;;7366112;19;20021;-80
2023/05/08 02:03:23;;;;;;;20.02;18.23;;;11.70;99.90;;;;;;7372550;19;20018;-80
2023/05/08 02:05:51;;;;;;;21.52;19.42;;;11.70;99.90;;;;;;7366141;19;20446;-80
2023/05/08 02:08:21;;;;;;;19.45;17.65;;;11.70;99.90;;;;;;7370170;19;20487;-79
2023/05/08 02:10:49;;;;;;;19.65;17.85;;;11.60;99.90;;;;;;7364058;19;20019;-79
2023/05/08 02:13:18;;;;;;;19.92;17.83;;;11.60;99.90;;;;;;7367428;19;20026;-80
2023/05/08 02:15:48;;;;;;;21.45;19.40;;;11.60;99.90;;;;;;7360399;19;20022;-80
2023/05/08 02:18:17;;;;;;;19.67;17.85;;;11.50;99.90;;;;;;7367797;19;20050;-80
2023/05/08 02:20:43;;;;;;;20.25;18.45;;;11.50;99.90;;;;;;7367833;19;20499;-80
2023/05/08 02:23:10;;;;;;;20.48;18.50;;;11.50;99.90;;;;;;7369640;19;20401;-80
2023/05/08 02:25:37;;;;;;;20.90;18.90;;;11.40;99.90;;;;;;7364265;19;20022;-81
2023/05/08 02:28:06;;;;;;;21.48;19.48;;;11.40;99.90;;;;;;7366578;19;20148;-80
2023/05/08 02:30:33;;;;;;;20.42;18.42;;;11.40;99.90;;;;;;7363004;19;20014;-80
2023/05/08 02:33:01;;;;;;;21.27;19.25;;;11.30;99.90;;;;;;7366586;19;20014;-80
2023/05/08 02:35:29;;;;;;;21.27;18.95;;;11.30;99.90;;;;;;7365624;19;20522;-80
2023/05/08 02:37:57;;;;;;;21.15;19.10;;;11.30;99.90;;;;;;7365039;19;20086;-80
2023/05/08 02:40:26;;;;;;;19.20;17.30;;;11.20;99.90;;;;;;7368716;19;20090;-80
2023/05/08 02:42:53;;;;;;;20.30;18.48;;;11.20;99.90;;;;;;7364458;19;20022;-79
2023/05/08 02:45:27;;;;;;;20.90;19.00;;;11.10;99.90;;;;;;7367382;19;20037;-80
2023/05/08 02:48:10;;;;;;;20.80;18.90;;;11.10;99.90;;;;;;7366267;19;20073;-80
2023/05/08 02:50:58;;;;;;;19.35;17.45;;;11.10;99.90;;;;;;7361268;19;20022;-80
2023/05/08 02:53:44;;;;;;;20.27;18.38;;;11.10;99.90;;;;;;7364625;19;20121;-80
2023/05/08 02:56:25;;;;;;;21.98;19.88;;;11.00;99.90;;;;;;7362450;19;20010;-80
2023/05/08 02:59:05;;;;;;;21.20;19.00;;;11.00;99.90;;;;;;7362233;19;20017;-80
2023/05/08 03:02:01;;;;;;;20.60;18.38;;;11.00;99.90;;;;;;7367324;19;20077;-80
2023/05/08 03:04:35;;;;;;;20.90;18.87;;;11.00;99.90;;;;;;7213540;19;2938453;-80
2023/05/08 03:07:03;;;;;;;19.75;17.85;;;10.90;99.90;;;;;;7370605;19;20275;-80
2023/05/08 03:09:43;;;;;;;20.02;18.17;;;10.90;99.90;;;;;;7366843;19;20018;-79
2023/05/08 03:12:14;;;;;;;20.55;18.65;;;10.90;99.90;;;;;;7367628;19;20078;-80
2023/05/08 03:14:49;;;;;;;20.67;18.73;;;10.90;99.90;;;;;;7360948;19;20512;-79
2023/05/08 03:17:17;;;;;;;21.38;19.25;;;10.90;99.90;;;;;;7365580;19;20446;-80
2023/05/08 03:19:51;;;;;;;21.15;18.92;;;10.90;99.90;;;;;;7366621;19;20018;-80
2023/05/08 03:22:19;;;;;;;19.88;17.98;;;10.80;99.90;;;;;;7370857;19;20029;-80
2023/05/08 03:24:48;;;;;;;23.02;18.55;;;10.90;99.90;;;;;;7369499;19;20014;-80
2023/05/08 03:27:16;;;;;;;20.50;18.60;;;10.80;99.90;;;;;;7371825;19;20019;-80
2023/05/08 03:29:45;;;;;;;20.90;18.83;;;10.90;99.90;;;;;;7366235;19;20022;-80
2023/05/08 03:32:12;;;;;;;20.42;18.42;;;10.90;99.90;;;;;;7368944;19;20609;-80
2023/05/08 03:34:39;;;;;;;20.23;18.42;;;10.90;99.90;;;;;;7367134;19;20041;-80
2023/05/08 03:37:06;;;;;;;21.08;19.08;;;10.90;99.90;;;;;;7365721;19;20565;-79
2023/05/08 03:39:33;;;;;;;20.75;18.75;;;11.00;99.90;;;;;;7370608;19;20075;-80
2023/05/08 03:41:59;;;;;;;21.10;18.95;;;11.00;99.90;;;;;;7366195;19;20477;-79
2023/05/08 03:44:28;;;;;;;20.20;18.17;;;10.90;99.90;;;;;;7370634;19;20018;-80
2023/05/08 03:46:57;;;;;;;21.35;18.33;;;10.80;99.90;;;;;;7364120;19;20026;-80
2023/05/08 03:49:27;;;;;;;21.27;19.23;;;10.80;99.90;;;;;;7371323;19;20510;-80
2023/05/08 03:51:55;;;;;;;19.58;17.58;;;10.70;99.90;;;;;;7368540;19;20026;-80
2023/05/08 03:54:24;;;;;;;20.65;18.63;;;10.70;99.90;;;;;;7369604;19;20484;-79
2023/05/08 03:56:53;;;;;;;20.73;18.77;;;10.70;99.90;;;;;;7363347;19;20022;-79
2023/05/08 03:59:37;;;;;;;21.05;19.00;;;10.60;99.90;;;;;;7367660;19;20018;-79
2023/05/08 04:02:21;;;;;;;20.75;18.73;;;10.60;99.90;;;;;;7365365;19;20070;-79
2023/05/08 04:04:54;;;;;;;20.77;18.67;;;10.60;99.90;;;;;;7364349;19;20026;-80
2023/05/08 04:07:21;;;;;;;19.75;17.88;;;10.50;99.90;;;;;;7366637;19;20052;-80
2023/05/08 04:10:01;;;;;;;19.95;18.13;;;10.50;99.90;;;;;;7364960;19;20018;-80
2023/05/08 04:12:44;;;;;;;20.80;18.63;;;10.50;99.90;;;;;;7363483;19;20014;-79
2023/05/08 04:15:24;;;;;;;20.65;18.52;;;10.40;99.90;;;;;;7364009;19;20034;-80
2023/05/08 04:17:57;;;;;;;21.08;18.83;;;10.40;99.90;;;;;;7364634;19;20017;-80
2023/05/08 04:20:26;;;;;;;20.92;18.83;;;10.40;99.90;;;;;;7364223;19;20014;-80
2023/05/08 04:22:54;;;;;;;21.13;19.08;;;10.40;99.90;;;;;;7362527;19;20022;-80
2023/05/08 04:25:22;;;;;;;20.30;18.30;;;10.40;99.90;;;;;;7357844;19;20597;-80
2023/05/08 04:27:50;;;;;;;21.15;19.13;;;10.40;99.90;;;;;;7360236;19;20014;-80
2023/05/08 04:30:17;;;;;;;20.20;18.25;;;10.30;99.90;;;;;;7363733;19;20037;-80
2023/05/08 04:32:45;;;;;;;20.73;18.60;;;10.30;99.90;;;;;;7364700;19;20018;-79
2023/05/08 04:35:13;;;;;;;20.27;18.27;;;10.30;99.90;;;;;;7362535;19;20025;-80
2023/05/08 04:37:41;;;;;;;21.08;17.80;;;10.30;99.90;;;;;;7364695;19;20015;-80
2023/05/08 04:40:09;;;;;;;20.55;18.42;;;10.20;99.90;;;;;;7366189;19;20500;-79
2023/05/08 04:42:38;;;;;;;21.13;18.92;;;10.20;99.90;;;;;;7366109;19;20033;-80
2023/05/08 04:45:05;;;;;;;19.80;17.85;;;10.30;99.90;;;;;;7365464;19;20014;-80
2023/05/08 04:47:32;;;;;;;20.73;18.73;;;10.30;99.90;;;;;;7357994;19;20078;-79
2023/05/08 04:49:59;;;;;;;19.95;17.95;;;10.30;99.90;;;;;;7364172;19;20047;-80
2023/05/08 04:52:26;;;;;;;21.60;19.60;;;10.30;99.90;;;;;;7361305;19;20022;-82
2023/05/08 04:54:55;;;;;;;19.63;17.70;;;10.40;99.90;;;;;;7368152;19;20043;-81
2023/05/08 04:57:21;;;;;;;20.33;18.33;;;10.40;99.90;;;;;;7362618;19;20015;-81
2023/05/08 04:59:48;;;;;;;18.58;16.83;;;10.40;99.90;;;;;;7365838;19;20014;-82
2023/05/08 05:02:15;;;;;;;20.33;18.42;;;10.50;99.90;;;;;;7360466;19;20424;-80
2023/05/08 05:04:44;;;;;;;19.42;17.42;;;10.60;99.90;;;;;;7365217;19;20019;-80
2023/05/08 05:07:10;;;;;;;17.45;15.82;;;10.80;99.90;;;;;;7364076;19;20890;-80
2023/05/08 05:09:38;;;;;;;18.35;16.55;;;11.00;99.90;;;;;;7367948;19;20018;-81
2023/05/08 05:12:06;;;;;;;18.58;16.85;;;11.30;99.90;;;;;;7365756;19;20022;-81
2023/05/08 05:14:32;;;;;;;17.95;16.25;;;11.60;99.90;;;;;;7364935;19;20040;-81
2023/05/08 05:16:59;;;;;;;17.38;15.70;;;11.60;99.90;;;;;;7361259;19;20026;-81
2023/05/08 05:19:26;;;;;;;16.75;15.05;;;11.90;99.90;;;;;;7367476;19;20033;-81
2023/05/08 05:21:52;;;;;;;16.20;14.60;;;11.90;99.90;;;;;;7364639;19;20533;-81
2023/05/08 05:24:19;;;;;;;16.58;15.05;;;12.00;99.90;;;;;;7366756;19;20028;-81
2023/05/08 05:26:45;;;;;;;16.55;15.05;;;12.10;99.90;;;;;;7364928;19;20022;-81
2023/05/08 05:29:12;;;;;;;14.45;13.07;;;12.20;99.90;;;;;;7363270;19;20018;-81
2023/05/08 05:31:39;;;;;;;15.00;13.60;;;12.50;99.90;;;;;;7359922;19;20110;-81
2023/05/08 05:34:05;;;;;;;14.82;13.38;;;12.50;99.90;;;;;;7359362;19;20991;-81
2023/05/08 05:36:32;;;;;;;15.85;14.38;;;12.50;99.90;;;;;;7352351;19;20353;-80
2023/05/08 05:38:59;;;;;;;14.95;13.55;;;12.50;99.90;;;;;;7350469;19;20022;-80
2023/05/08 05:41:25;;;;;;;14.82;13.38;;;12.60;99.90;;;;;;7353711;19;20115;-80
2023/05/08 05:43:54;;;;;;;14.55;13.23;;;12.70;99.90;;;;;;7355436;19;20018;-81
2023/05/08 05:46:25;;;;;;;14.70;13.40;;;12.90;99.90;;;;;;7367428;19;20029;-80
2023/05/08 05:48:52;;;;;;;14.30;13.00;;;13.00;99.90;;;;;;7363351;19;20026;-81
2023/05/08 05:51:19;;;;;;;14.05;12.65;;;13.10;99.90;;;;;;7363605;19;20082;-81
2023/05/08 05:53:48;;;;;;;14.18;12.88;;;13.10;99.90;;;;;;7363542;19;20033;-82
2023/05/08 05:56:14;;;;;;;13.88;12.50;;;13.20;99.90;;;;;;7365395;19;20602;-82
2023/05/08 05:58:43;;;;;;;13.77;12.43;;;13.30;99.90;;;;;;7363484;19;20972;-81
2023/05/08 06:01:11;;;;;;;14.15;12.63;;;13.30;99.90;;;;;;7362575;19;20098;-82
2023/05/08 06:03:38;;;;;;;13.55;12.35;;;13.40;99.90;;;;;;7363757;19;20030;-81
2023/05/08 06:06:04;;;;;;;14.80;13.50;;;13.50;99.90;;;;;;7362587;19;20053;-81
2023/05/08 06:08:31;;;;;;;13.93;12.63;;;13.50;99.90;;;;;;7366319;19;20018;-82
2023/05/08 06:10:57;;;;;;;12.75;11.45;;;13.70;99.90;;;;;;7363278;19;20053;-80
2023/05/08 06:13:24;;;;;;;12.90;11.70;;;13.80;99.90;;;;;;7358923;19;20029;-79
2023/05/08 06:15:55;;;;;;;13.27;11.73;;;13.80;99.90;;;;;;7362878;19;20026;-79
2023/05/08 06:18:22;;;;;;;12.82;11.55;;;13.90;99.90;;;;;;7363320;19;20673;-81
2023/05/08 06:20:53;;;;;;;12.93;11.57;;;14.00;99.90;;;;;;7362876;19;20041;-81
2023/05/08 06:23:21;;;;;;;12.55;11.48;;;14.20;99.90;;;;;;7363615;19;20022;-81
2023/05/08 06:25:48;;;;;;;12.63;11.57;;;14.20;99.90;;;;;;7363725;19;20030;-81
2023/05/08 06:28:16;;;;;;;12.27;11.15;;;14.30;99.90;;;;;;7358818;19;20018;-81
2023/05/08 06:30:43;;;;;;;12.93;11.73;;;14.40;99.90;;;;;;7356732;19;20023;-81
2023/05/08 06:33:10;;;;;;;12.50;11.40;;;14.50;99.90;;;;;;7355580;19;20491;-81
2023/05/08 06:35:36;;;;;;;12.25;11.13;;;14.40;99.90;;;;;;7364908;19;20014;-80
2023/05/08 06:38:03;;;;;;;12.95;11.73;;;14.60;99.90;;;;;;7369889;19;20019;-79
2023/05/08 06:40:29;;;;;;;12.95;11.75;;;14.80;99.90;;;;;;7367839;19;20010;-78
2023/05/08 06:42:57;;;;;;;13.40;12.20;;;15.10;99.90;;;;;;7363910;19;20487;-79
2023/05/08 06:45:23;;;;;;;11.90;10.70;;;15.10;99.90;;;;;;7368252;19;20018;-80
2023/05/08 06:47:50;;;;;;;12.32;11.15;;;15.30;99.90;;;;;;7367371;19;21257;-79
2023/05/08 06:50:17;;;;;;;13.50;12.20;;;15.50;99.90;;;;;;7368945;19;20018;-79
2023/05/08 06:52:45;;;;;;;12.93;11.73;;;15.50;99.90;;;;;;7364216;19;20022;-79
2023/05/08 06:55:11;;;;;;;19.13;15.02;;;15.40;99.90;;;;;;7372234;19;20601;-80
2023/05/08 06:57:38;;;;;;;12.88;11.77;;;15.20;99.90;;;;;;7369496;19;20820;-79
2023/05/08 07:00:05;;;;;;;12.90;11.65;;;15.10;99.90;;;;;;7369929;19;20018;-79
2023/05/08 07:02:34;;;;;;;12.30;11.13;;;15.20;99.90;;;;;;7366708;19;20011;-79
2023/05/08 07:05:01;;;;;;;16.05;14.45;;;15.20;99.90;;;;;;7372183;19;20095;-79
2023/05/08 07:07:28;;;;;;;13.45;12.15;;;15.10;99.90;;;;;;7366157;19;20036;-78
2023/05/08 07:09:55;;;;;;;13.77;12.52;;;15.20;99.90;;;;;;7371369;19;20042;-79
2023/05/08 07:12:22;;;;;;;13.88;12.45;;;15.30;99.90;;;;;;7371557;19;20594;-78
2023/05/08 07:14:50;;;;;;;12.95;11.75;;;15.50;99.90;;;;;;7368669;19;20022;-77
2023/05/08 07:17:18;;;;;;;15.57;13.27;;;15.60;99.90;;;;;;7362438;19;20598;-78
2023/05/08 07:19:50;;;;;;;14.05;12.75;;;15.70;99.90;;;;;;7368079;19;20069;-78
2023/05/08 07:22:19;;;;;;;13.38;11.82;;;15.90;99.90;;;;;;7369197;19;20026;-78
2023/05/08 07:24:47;;;;;;;14.35;12.90;;;16.30;99.90;;;;;;7371676;19;20068;-78
2023/05/08 07:27:13;;;;;;;12.93;11.73;;;16.50;99.90;;;;;;7369396;19;20035;-78
2023/05/08 07:29:43;;;;;;;13.05;11.75;;;16.40;99.90;;;;;;7369788;19;20044;-78
2023/05/08 07:32:09;;;;;;;13.00;11.70;;;16.80;99.90;;;;;;7364807;19;20014;-79
2023/05/08 07:34:36;;;;;;;13.23;11.93;;;17.00;99.90;;;;;;7370390;19;20018;-78
2023/05/08 07:37:03;;;;;;;13.23;12.15;;;17.20;99.90;;;;;;7367899;19;20360;-78
2023/05/08 07:39:33;;;;;;;13.50;12.30;;;17.60;99.90;;;;;;7371166;19;20482;-79
2023/05/08 07:42:00;;;;;;;12.50;11.40;;;18.10;99.90;;;;;;7364825;19;20772;-78
2023/05/08 07:44:26;;;;;;;12.30;11.13;;;18.60;99.90;;;;;;7369869;19;20074;-78
2023/05/08 07:46:53;;;;;;;12.48;11.38;;;18.70;99.90;;;;;;7362931;19;20022;-79
2023/05/08 07:49:20;;;;;;;13.00;11.73;;;18.90;99.90;;;;;;7367945;19;20046;-79
2023/05/08 07:51:47;;;;;;;12.20;11.15;;;19.20;99.90;;;;;;7368589;19;20029;-79
2023/05/08 07:54:14;;;;;;;11.57;10.38;;;19.30;99.90;;;;;;7370410;19;20030;-79
2023/05/08 07:56:41;;;;;;;11.68;10.45;;;19.70;99.90;;;;;;7366261;19;20372;-79
2023/05/08 07:59:08;;;;;;;11.50;10.35;;;19.60;99.90;;;;;;7369492;19;20014;-79
2023/05/08 08:01:35;;;;;;;11.60;10.60;;;19.30;99.90;;;;;;7368650;19;20069;-79
2023/05/08 08:04:02;;;;;;;13.13;11.95;;;19.30;99.90;;;;;;7368304;19;20045;-79
2023/05/08 08:06:30;;;;;;;11.65;10.55;;;19.50;99.90;;;;;;7368377;19;20018;-79
2023/05/08 08:08:57;;;;;;;12.00;10.80;;;19.40;99.90;;;;;;7366096;19;20022;-79
2023/05/08 08:11:23;;;;;;;11.80;10.75;;;19.60;99.90;;;;;;7373281;19;20606;-80
2023/05/08 08:13:50;;;;;;;12.00;10.90;;;19.90;99.90;;;;;;7365354;19;20030;-79
2023/05/08 08:16:17;;;;;;;11.48;10.48;;;20.20;99.90;;;;;;7368547;19;20556;-79
2023/05/08 08:18:44;;;;;;;12.13;11.02;;;20.60;99.90;;;;;;7369663;19;20011;-79
2023/05/08 08:21:11;;;;;;;15.75;14.23;;;20.40;99.90;;;;;;7367461;19;20046;-80
2023/05/08 08:23:37;;;;;;;11.15;10.15;;;20.60;99.90;;;;;;7365658;19;20057;-79
2023/05/08 08:26:04;;;;;;;12.05;10.95;;;20.80;99.90;;;;;;7369166;19;20091;-79
2023/05/08 08:28:33;;;;;;;12.02;10.90;;;21.50;99.90;;;;;;7368780;19;20790;-79
2023/05/08 08:31:00;;;;;;;11.25;10.25;;;21.50;99.90;;;;;;7364606;19;20034;-78
2023/05/08 08:33:28;;;;;;;10.77;9.75;;;21.90;99.90;;;;;;7365047;19;20535;-79
2023/05/08 08:35:55;;;;;;;11.43;10.27;;;21.70;99.90;;;;;;7365377;19;20026;-79
2023/05/08 08:38:22;;;;;;;11.20;10.30;;;21.90;96.50;;;;;;7368262;19;20022;-78
2023/05/08 08:40:48;;;;;;;11.20;10.30;;;21.90;99.90;;;;;;7365211;19;20026;-79
2023/05/08 08:43:15;;;;;;;11.80;10.65;;;22.50;95.30;;;;;;7367850;19;20018;-79
2023/05/08 08:45:45;;;;;;;13.10;11.80;;;22.40;90.00;;;;;;7367069;19;20376;-78
2023/05/08 08:48:13;;;;;;;12.02;11.02;;;22.50;89.20;;;;;;7368513;19;20010;-78
2023/05/08 08:50:45;;;;;;;11.48;10.52;;;23.00;86.60;;;;;;7365553;19;20569;-79
2023/05/08 08:53:29;;;;;;;11.15;10.25;;;22.90;82.80;;;;;;7361327;19;20892;-78
2023/05/08 08:56:01;;;;;;;12.55;11.45;;;23.20;72.60;;;;;;7364232;19;20323;-79
2023/05/08 08:58:45;;;;;;;12.27;11.18;;;23.20;74.90;;;;;;7360397;19;20014;-79
2023/05/08 09:01:18;;;;;;;11.73;10.45;;;23.30;71.40;;;;;;7365556;19;20037;-78
2023/05/08 09:03:46;;;;;;;11.63;10.73;;;23.20;73.40;;;;;;7366518;19;20010;-78
2023/05/08 09:06:16;;;;;;;11.70;10.73;;;22.70;71.40;;;;;;7367410;19;20018;-79
2023/05/08 09:08:53;;;;;;;13.05;11.43;;;23.00;71.60;;;;;;7365571;19;20365;-79
2023/05/08 09:11:20;;;;;;;11.63;10.63;;;23.50;72.20;;;;;;7367086;19;20493;-79
2023/05/08 09:13:47;;;;;;;12.20;11.20;;;23.40;72.10;;;;;;7363845;19;20479;-79
2023/05/08 09:16:15;;;;;;;12.60;11.60;;;23.60;69.90;;;;;;7367604;19;20112;-79
2023/05/08 09:18:43;;;;;;;12.48;11.38;;;23.70;69.10;;;;;;7365705;19;20019;-78
2023/05/08 09:21:11;;;;;;;12.70;11.60;;;23.80;70.20;;;;;;7365827;19;20026;-79
2023/05/08 09:23:59;;;;;;;11.55;10.65;;;24.10;70.50;;;;;;7362863;19;20025;-79
2023/05/08 09:26:34;;;;;;;12.18;11.05;;;24.40;67.80;;;;;;7363903;19;20023;-78
2023/05/08 09:29:08;;;;;;;13.52;12.43;;;24.10;66.10;;;;;;7366305;19;20027;-78
2023/05/08 09:31:38;;;;;;;12.48;11.38;;;24.60;63.60;;;;;;7358039;19;20018;-78
2023/05/08 09:34:22;;;;;;;12.30;11.25;;;24.60;64.90;;;;;;7363892;19;20011;-79
2023/05/08 09:36:49;;;;;;;12.40;11.27;;;24.80;65.10;;;;;;7359943;19;21225;-79
2023/05/08 09:39:23;;;;;;;15.50;14.10;;;25.10;63.70;;;;;;7361778;19;20035;-79
2023/05/08 09:42:04;;;;;;;13.50;12.18;;;25.10;62.50;;;;;;7358930;19;20018;-79
2023/05/08 09:44:46;;;;;;;12.50;11.40;;;25.40;61.90;;;;;;7360080;19;20042;-81
2023/05/08 09:47:17;;;;;;;12.75;11.65;;;24.90;61.20;;;;;;7365422;19;20019;-83
2023/05/08 09:50:06;;;;;;;14.05;12.73;;;24.80;61.80;;;;;;7359559;19;21247;-84
2023/05/08 09:52:34;;;;;;;14.13;12.68;;;24.70;62.60;;;;;;7361509;19;20078;-80
2023/05/08 09:55:05;;;;;;;14.18;12.90;;;24.60;62.80;;;;;;7355729;19;20011;-78
2023/05/08 09:57:38;;;;;;;13.75;12.55;;;24.90;63.00;;;;;;7362789;19;20023;-78
2023/05/08 10:00:07;;;;;;;13.80;12.60;;;24.50;62.60;;;;;;7360322;19;20027;-78
2023/05/08 10:02:34;;;;;;;13.85;12.65;;;24.90;62.30;;;;;;7361010;19;20034;-80
2023/05/08 10:05:03;;;;;;;13.80;12.50;;;25.20;62.00;;;;;;7356296;19;20022;-77
2023/05/08 10:07:37;;;;;;;13.32;12.18;;;24.90;61.90;;;;;;7361348;19;20026;-78
2023/05/08 10:10:05;;;;;;;13.60;12.50;;;25.20;63.50;;;;;;7358362;19;20025;-77
2023/05/08 10:12:32;;;;;;;13.05;11.95;;;25.50;61.10;;;;;;7365703;19;20521;-81
2023/05/08 10:14:59;;;;;;;13.43;12.25;;;25.40;62.80;;;;;;7367642;19;20035;-80
2023/05/08 10:17:55;;;;;;;13.52;12.18;;;25.60;61.80;;;;;;7361461;19;20270;-79
2023/05/08 10:20:25;;;;;;;13.90;12.68;;;25.70;60.90;;;;;;7365760;19;20301;-80
2023/05/08 10:22:54;;;;;;;12.90;11.80;;;26.00;60.90;;;;;;7360887;19;20026;-80
2023/05/08 10:25:22;;;;;;;14.02;12.88;;;26.10;60.50;;;;;;7367279;19;20050;-80
2023/05/08 10:28:01;;;;;;;14.10;12.90;;;26.60;60.10;;;;;;7366752;19;20022;-79
2023/05/08 10:30:30;;;;;;;15.55;14.13;;;26.70;59.40;;;;;;7366766;19;20018;-77
2023/05/08 10:32:58;;;;;;;16.25;14.40;;;27.00;59.20;;;;;;7366712;19;20025;-77
2023/05/08 10:35:25;;;;;;;15.65;14.35;;;26.60;60.30;;;;;;7368487;19;20022;-78
2023/05/08 10:37:55;;;;;;;15.73;14.43;;;26.40;60.30;;;;;;7370845;19;20018;-78
2023/05/08 10:40:22;;;;;;;15.20;14.00;;;26.30;60.00;;;;;;7371708;19;20022;-81
2023/05/08 10:42:50;;;;;;;17.98;16.45;;;26.70;60.10;;;;;;7368982;19;20523;-79
2023/05/08 10:45:17;;;;;;;14.15;12.98;;;27.10;59.30;;;;;;7370873;19;20026;-79
2023/05/08 10:48:07;;;;;;;14.02;12.73;;;26.80;58.80;;;;;;7369330;19;20025;-78
2023/05/08 10:50:43;;;;;;;15.05;13.85;;;27.30;58.30;;;;;;7368214;19;20100;-83
2023/05/08 10:53:28;;;;;;;14.75;13.45;;;27.40;58.40;;;;;;7372262;19;20052;-80
2023/05/08 10:55:55;;;;;;;13.60;12.30;;;27.40;57.90;;;;;;7364256;19;20027;-80
2023/05/08 10:58:22;;;;;;;14.63;13.32;;;27.30;56.60;;;;;;7372010;19;20033;-81
2023/05/08 11:00:52;;;;;;;14.20;12.93;;;27.00;56.30;;;;;;7371108;19;20029;-80
2023/05/08 11:03:21;;;;;;;13.27;12.05;;;27.20;55.50;;;;;;7368518;19;20015;-80
2023/05/08 11:05:50;;;;;;;12.90;11.70;;;27.20;56.10;;;;;;7367707;19;20021;-80
2023/05/08 11:08:23;;;;;;;13.10;12.05;;;27.30;56.00;;;;;;7366937;19;20090;-80
2023/05/08 11:11:05;;;;;;;14.07;12.88;;;27.80;56.30;;;;;;7370446;19;20018;-80
2023/05/08 11:13:32;;;;;;;13.90;12.82;;;27.70;54.80;;;;;;7369731;19;20347;-82
2023/05/08 11:15:59;;;;;;;12.90;11.88;;;27.40;55.40;;;;;;7367355;19;20909;-79
2023/05/08 11:18:28;;;;;;;13.15;12.02;;;27.60;55.20;;;;;;7364197;19;20022;-79
2023/05/08 11:21:05;;;;;;;12.63;11.52;;;27.80;55.10;;;;;;7363099;19;20015;-80
2023/05/08 11:23:34;;;;;;;12.90;11.63;;;27.60;55.20;;;;;;7367156;19;20019;-79
2023/05/08 11:26:03;;;;;;;13.10;12.00;;;27.10;54.80;;;;;;7370428;19;20121;-81
2023/05/08 11:28:52;;;;;;;14.95;13.65;;;27.40;56.00;;;;;;7369875;19;20018;-82
2023/05/08 11:31:22;;;;;;;14.10;12.80;;;27.50;54.40;;;;;;7364094;19;20052;-81
2023/05/08 11:33:49;;;;;;;14.60;13.40;;;27.80;56.50;;;;;;7368306;19;20025;-77
2023/05/08 11:36:21;;;;;;;15.20;13.93;;;27.60;55.80;;;;;;7367145;19;20090;-77
2023/05/08 11:39:08;;;;;;;15.52;14.15;;;28.10;55.00;;;;;;7372729;19;20014;-95
2023/05/08 11:41:38;;;;;;;15.73;14.18;;;28.00;54.90;;;;;;7371200;19;20357;-86
2023/05/08 11:44:21;;;;;;;14.93;13.63;;;28.20;54.80;;;;;;7368979;19;20496;-81
2023/05/08 11:46:50;;;;;;;15.32;14.02;;;28.40;54.60;;;;;;7363280;19;20537;-80
2023/05/08 11:49:19;;;;;;;13.90;12.70;;;28.50;54.60;;;;;;7370376;19;20018;-80
2023/05/08 11:51:57;;;;;;;74.63;67.60;;;28.30;54.70;;;;;;7367758;19;20030;-82
2023/05/08 11:54:28;;;;;;;18.85;17.35;;;28.80;54.10;;;;;;7368885;19;20021;-81
2023/05/08 11:56:58;;;;;;;16.80;15.23;;;28.60;53.70;;;;;;7366160;19;20026;-82
2023/05/08 11:59:25;;;;;;;16.02;14.73;;;28.70;53.80;;;;;;7367573;19;20022;-80
2023/05/08 12:01:52;;;;;;;15.20;13.98;;;28.40;53.80;;;;;;7367144;19;20038;-81
2023/05/08 12:04:19;;;;;;;16.45;14.98;;;28.40;54.30;;;;;;7369457;19;20649;-81
2023/05/08 12:06:50;;;;;;;15.95;14.65;;;28.90;53.10;;;;;;7369657;19;20022;-80
2023/05/08 12:09:19;;;;;;;13.88;12.57;;;28.90;53.90;;;;;;7366231;19;20495;-81
2023/05/08 12:11:47;;;;;;;14.57;13.35;;;28.00;54.30;;;;;;7371457;19;20052;-79
2023/05/08 12:14:17;;;;;;;13.82;12.63;;;27.90;54.30;;;;;;7364133;19;20432;-79
2023/05/08 12:16:44;;;;;;;13.88;12.50;;;28.50;55.00;;;;;;7368324;19;20022;-79
2023/05/08 12:19:12;;;;;;;12.30;11.20;;;27.70;54.30;;;;;;7370280;19;20022;-79
2023/05/08 12:21:47;;;;;;;12.57;11.45;;;28.30;54.30;;;;;;7370855;19;20332;-80
2023/05/08 12:24:21;;;;;;;13.05;11.95;;;28.00;54.00;;;;;;7366311;19;20018;-79
2023/05/08 12:26:49;;;;;;;14.32;13.02;;;28.20;54.30;;;;;;7363685;19;20019;-80
2023/05/08 12:29:18;;;;;;;12.77;11.52;;;28.30;54.40;;;;;;7367899;19;20029;-81
2023/05/08 12:31:47;;;;;;;15.02;13.50;;;28.20;54.90;;;;;;7368922;19;20555;-79
2023/05/08 12:34:15;;;;;;;15.13;13.93;;;27.50;54.60;;;;;;7366971;19;20571;-80
2023/05/08 12:36:42;;;;;;;15.23;13.63;;;27.00;55.30;;;;;;7366013;19;20033;-79
2023/05/08 12:39:14;;;;;;;16.17;14.68;;;27.20;55.90;;;;;;7361175;19;20042;-79
2023/05/08 12:41:48;;;;;;;14.57;13.15;;;27.10;55.50;;;;;;7370381;19;20482;-79